Saint Petersburg, Florida
Current Conditions -  °F | °C
As of 7:53 AM on Saturday 01 Nov 2014 (Local Time) from KSPG Reporting Station
Clear Clear  
Wind Chill: 66°   Ceiling: Unl
Heat Index: 66°   Visibility: 10mi
Dew Point: 53°   Wind: 15mph
Humidity: 63%   Direction: 340°NNW
Pressure: 29.98"   Gusts: 28mph
Location:  27.77°N, 82.63°W
Report Text: KSPG 011153Z 34013G24KT 10SM CLR 19/12 A2998 RMK AO2 SLP151 T01890117 10217 20189 53028
Loading
Personal Weather Stations






























Interactive Weather Map
Tropical Storm Tracking
New forecast layout! Learn more

10-Day Weather Forecast

Advertisements
Track Severe Weather on mobile